sensor_id;sensor_type;location;lat;lon;timestamp;P1;durP1;ratioP1;P2;durP2;ratioP2
16973;SDS011;8603;46.944;7.412;2024-02-28T00:36:27;29.93;;;18.07;;
16973;SDS011;8603;46.944;7.412;2024-02-28T00:46:51;27.33;;;18.23;;
16973;SDS011;8603;46.944;7.412;2024-02-28T00:49:59;25.33;;;16.90;;
16973;SDS011;8603;46.944;7.412;2024-02-28T00:53:31;26.67;;;17.43;;
16973;SDS011;8603;46.944;7.412;2024-02-28T01:10:06;25.50;;;17.47;;
16973;SDS011;8603;46.944;7.412;2024-02-28T01:13:40;25.07;;;17.13;;
16973;SDS011;8603;46.944;7.412;2024-02-28T01:16:19;24.77;;;17.83;;
16973;SDS011;8603;46.944;7.412;2024-02-28T01:18:50;26.27;;;17.17;;
16973;SDS011;8603;46.944;7.412;2024-02-28T01:21:48;27.13;;;16.67;;
16973;SDS011;8603;46.944;7.412;2024-02-28T01:55:13;27.07;;;18.33;;
16973;SDS011;8603;46.944;7.412;2024-02-28T04:20:31;23.77;;;15.20;;
16973;SDS011;8603;46.944;7.412;2024-02-28T06:05:42;19.13;;;13.17;;
16973;SDS011;8603;46.944;7.412;2024-02-28T06:08:09;20.13;;;13.53;;
16973;SDS011;8603;46.944;7.412;2024-02-28T06:10:36;22.53;;;13.47;;
16973;SDS011;8603;46.944;7.412;2024-02-28T06:13:07;20.43;;;13.13;;
16973;SDS011;8603;46.944;7.412;2024-02-28T06:15:35;23.40;;;13.30;;
16973;SDS011;8603;46.944;7.412;2024-02-28T06:18:07;21.60;;;12.33;;
16973;SDS011;8603;46.944;7.412;2024-02-28T06:20:36;18.73;;;12.87;;
16973;SDS011;8603;46.944;7.412;2024-02-28T06:23:02;20.27;;;13.13;;
16973;SDS011;8603;46.944;7.412;2024-02-28T06:25:29;22.73;;;13.00;;
16973;SDS011;8603;46.944;7.412;2024-02-28T06:27:54;18.33;;;13.23;;
16973;SDS011;8603;46.944;7.412;2024-02-28T06:30:20;19.90;;;13.53;;
16973;SDS011;8603;46.944;7.412;2024-02-28T06:32:45;17.23;;;12.07;;
16973;SDS011;8603;46.944;7.412;2024-02-28T06:35:17;19.43;;;12.90;;
16973;SDS011;8603;46.944;7.412;2024-02-28T06:37:49;21.63;;;13.97;;
16973;SDS011;8603;46.944;7.412;2024-02-28T06:40:15;20.20;;;14.00;;
16973;SDS011;8603;46.944;7.412;2024-02-28T06:42:41;23.03;;;13.33;;
16973;SDS011;8603;46.944;7.412;2024-02-28T06:45:07;20.70;;;13.63;;
16973;SDS011;8603;46.944;7.412;2024-02-28T06:47:33;17.97;;;11.73;;
16973;SDS011;8603;46.944;7.412;2024-02-28T06:49:59;19.33;;;13.10;;
16973;SDS011;8603;46.944;7.412;2024-02-28T06:52:33;20.47;;;13.57;;
16973;SDS011;8603;46.944;7.412;2024-02-28T06:55:00;23.40;;;13.27;;
16973;SDS011;8603;46.944;7.412;2024-02-28T06:57:31;18.97;;;12.70;;
16973;SDS011;8603;46.944;7.412;2024-02-28T06:59:57;20.93;;;13.33;;
16973;SDS011;8603;46.944;7.412;2024-02-28T07:02:45;19.80;;;12.90;;
16973;SDS011;8603;46.944;7.412;2024-02-28T07:05:12;21.30;;;13.27;;
16973;SDS011;8603;46.944;7.412;2024-02-28T07:07:40;19.33;;;12.83;;
16973;SDS011;8603;46.944;7.412;2024-02-28T07:10:15;21.57;;;13.87;;
16973;SDS011;8603;46.944;7.412;2024-02-28T07:12:44;20.47;;;13.03;;
16973;SDS011;8603;46.944;7.412;2024-02-28T07:15:10;21.30;;;12.17;;
16973;SDS011;8603;46.944;7.412;2024-02-28T07:17:38;20.90;;;13.60;;
16973;SDS011;8603;46.944;7.412;2024-02-28T07:20:06;19.93;;;12.83;;
16973;SDS011;8603;46.944;7.412;2024-02-28T07:22:33;20.47;;;12.17;;
16973;SDS011;8603;46.944;7.412;2024-02-28T07:24:59;19.60;;;12.63;;
16973;SDS011;8603;46.944;7.412;2024-02-28T07:27:24;18.97;;;12.17;;
16973;SDS011;8603;46.944;7.412;2024-02-28T07:29:50;16.77;;;11.87;;
16973;SDS011;8603;46.944;7.412;2024-02-28T07:32:16;20.30;;;12.77;;
16973;SDS011;8603;46.944;7.412;2024-02-28T07:34:41;18.87;;;11.63;;
16973;SDS011;8603;46.944;7.412;2024-02-28T07:37:07;19.03;;;11.90;;
16973;SDS011;8603;46.944;7.412;2024-02-28T07:39:42;18.67;;;11.80;;
16973;SDS011;8603;46.944;7.412;2024-02-28T07:42:10;19.13;;;12.13;;
16973;SDS011;8603;46.944;7.412;2024-02-28T07:44:35;20.20;;;11.87;;
16973;SDS011;8603;46.944;7.412;2024-02-28T07:47:01;18.20;;;11.73;;
16973;SDS011;8603;46.944;7.412;2024-02-28T07:49:33;17.63;;;12.20;;
16973;SDS011;8603;46.944;7.412;2024-02-28T07:52:01;17.37;;;12.10;;
16973;SDS011;8603;46.944;7.412;2024-02-28T07:54:27;17.57;;;12.53;;
16973;SDS011;8603;46.944;7.412;2024-02-28T07:56:53;22.30;;;12.20;;
16973;SDS011;8603;46.944;7.412;2024-02-28T07:59:18;26.33;;;11.63;;
16973;SDS011;8603;46.944;7.412;2024-02-28T08:01:45;18.57;;;12.30;;
16973;SDS011;8603;46.944;7.412;2024-02-28T08:04:10;17.47;;;11.27;;
16973;SDS011;8603;46.944;7.412;2024-02-28T08:06:39;19.43;;;12.47;;
16973;SDS011;8603;46.944;7.412;2024-02-28T08:09:05;18.07;;;12.43;;
16973;SDS011;8603;46.944;7.412;2024-02-28T08:11:32;21.27;;;12.77;;
16973;SDS011;8603;46.944;7.412;2024-02-28T08:13:58;18.83;;;11.20;;
16973;SDS011;8603;46.944;7.412;2024-02-28T08:16:26;18.13;;;11.53;;
16973;SDS011;8603;46.944;7.412;2024-02-28T08:18:52;16.63;;;11.20;;
16973;SDS011;8603;46.944;7.412;2024-02-28T08:21:17;18.23;;;11.20;;
16973;SDS011;8603;46.944;7.412;2024-02-28T08:23:43;17.93;;;11.37;;
16973;SDS011;8603;46.944;7.412;2024-02-28T08:26:15;19.00;;;12.73;;
16973;SDS011;8603;46.944;7.412;2024-02-28T08:28:40;18.20;;;12.40;;
16973;SDS011;8603;46.944;7.412;2024-02-28T08:31:09;20.17;;;11.73;;
16973;SDS011;8603;46.944;7.412;2024-02-28T08:33:37;16.73;;;11.30;;
16973;SDS011;8603;46.944;7.412;2024-02-28T08:36:03;20.57;;;12.47;;
16973;SDS011;8603;46.944;7.412;2024-02-28T08:38:29;17.47;;;11.97;;
16973;SDS011;8603;46.944;7.412;2024-02-28T08:41:04;16.83;;;12.10;;
16973;SDS011;8603;46.944;7.412;2024-02-28T08:43:48;17.87;;;12.77;;
16973;SDS011;8603;46.944;7.412;2024-02-28T08:46:14;16.20;;;11.33;;
16973;SDS011;8603;46.944;7.412;2024-02-28T08:48:41;18.03;;;11.87;;
16973;SDS011;8603;46.944;7.412;2024-02-28T08:51:07;19.20;;;11.30;;
16973;SDS011;8603;46.944;7.412;2024-02-28T08:53:53;18.33;;;12.10;;
16973;SDS011;8603;46.944;7.412;2024-02-28T08:56:20;17.40;;;11.77;;
16973;SDS011;8603;46.944;7.412;2024-02-28T08:58:48;17.37;;;11.47;;
16973;SDS011;8603;46.944;7.412;2024-02-28T09:01:14;19.07;;;11.43;;
16973;SDS011;8603;46.944;7.412;2024-02-28T09:03:40;14.87;;;10.47;;
16973;SDS011;8603;46.944;7.412;2024-02-28T09:06:06;18.87;;;11.17;;
16973;SDS011;8603;46.944;7.412;2024-02-28T09:08:32;14.97;;;11.30;;
16973;SDS011;8603;46.944;7.412;2024-02-28T09:11:00;16.73;;;11.00;;
16973;SDS011;8603;46.944;7.412;2024-02-28T09:13:33;15.60;;;10.53;;
16973;SDS011;8603;46.944;7.412;2024-02-28T09:16:03;13.67;;;9.63;;
16973;SDS011;8603;46.944;7.412;2024-02-28T09:18:28;14.30;;;10.03;;
16973;SDS011;8603;46.944;7.412;2024-02-28T09:20:54;15.13;;;10.77;;
16973;SDS011;8603;46.944;7.412;2024-02-28T09:23:26;15.50;;;11.10;;
16973;SDS011;8603;46.944;7.412;2024-02-28T09:25:53;17.70;;;10.63;;
16973;SDS011;8603;46.944;7.412;2024-02-28T09:28:20;19.77;;;11.10;;
16973;SDS011;8603;46.944;7.412;2024-02-28T09:43:53;16.77;;;11.17;;
16973;SDS011;8603;46.944;7.412;2024-02-28T09:46:29;14.57;;;10.53;;
16973;SDS011;8603;46.944;7.412;2024-02-28T09:49:05;16.73;;;11.83;;
16973;SDS011;8603;46.944;7.412;2024-02-28T10:01:13;14.90;;;10.87;;
16973;SDS011;8603;46.944;7.412;2024-02-28T10:03:45;15.33;;;11.10;;
16973;SDS011;8603;46.944;7.412;2024-02-28T10:15:08;15.20;;;10.37;;
16973;SDS011;8603;46.944;7.412;2024-02-28T10:17:49;14.40;;;10.83;;
16973;SDS011;8603;46.944;7.412;2024-02-28T10:20:30;18.20;;;10.40;;
16973;SDS011;8603;46.944;7.412;2024-02-28T10:26:13;14.73;;;10.57;;
16973;SDS011;8603;46.944;7.412;2024-02-28T10:32:26;17.60;;;10.73;;
16973;SDS011;8603;46.944;7.412;2024-02-28T10:35:50;13.67;;;9.93;;
16973;SDS011;8603;46.944;7.412;2024-02-28T10:38:23;15.87;;;10.77;;
16973;SDS011;8603;46.944;7.412;2024-02-28T10:41:00;13.93;;;10.03;;
16973;SDS011;8603;46.944;7.412;2024-02-28T10:43:32;14.43;;;10.33;;
16973;SDS011;8603;46.944;7.412;2024-02-28T10:50:06;15.37;;;11.60;;
16973;SDS011;8603;46.944;7.412;2024-02-28T10:52:38;18.17;;;11.73;;
16973;SDS011;8603;46.944;7.412;2024-02-28T10:55:48;19.57;;;12.47;;
16973;SDS011;8603;46.944;7.412;2024-02-28T11:09:09;16.83;;;12.37;;
16973;SDS011;8603;46.944;7.412;2024-02-28T11:11:48;18.27;;;12.57;;
16973;SDS011;8603;46.944;7.412;2024-02-28T11:14:57;18.53;;;12.37;;
16973;SDS011;8603;46.944;7.412;2024-02-28T11:20:58;19.37;;;12.50;;
16973;SDS011;8603;46.944;7.412;2024-02-28T11:24:06;19.80;;;13.13;;
16973;SDS011;8603;46.944;7.412;2024-02-28T11:26:56;19.07;;;12.27;;
16973;SDS011;8603;46.944;7.412;2024-02-28T11:29:57;17.97;;;12.77;;
16973;SDS011;8603;46.944;7.412;2024-02-28T11:33:05;19.30;;;12.30;;
16973;SDS011;8603;46.944;7.412;2024-02-28T11:45:49;16.77;;;11.83;;
16973;SDS011;8603;46.944;7.412;2024-02-28T11:49:17;19.97;;;12.20;;
16973;SDS011;8603;46.944;7.412;2024-02-28T11:52:07;20.87;;;12.07;;
16973;SDS011;8603;46.944;7.412;2024-02-28T12:05:12;18.90;;;12.57;;
16973;SDS011;8603;46.944;7.412;2024-02-28T12:12:14;19.43;;;12.80;;
16973;SDS011;8603;46.944;7.412;2024-02-28T12:15:23;18.27;;;12.67;;
16973;SDS011;8603;46.944;7.412;2024-02-28T12:25:32;17.27;;;12.30;;
16973;SDS011;8603;46.944;7.412;2024-02-28T12:35:53;18.93;;;12.90;;
16973;SDS011;8603;46.944;7.412;2024-02-28T12:45:41;19.43;;;13.30;;
16973;SDS011;8603;46.944;7.412;2024-02-28T12:55:21;21.57;;;13.20;;
16973;SDS011;8603;46.944;7.412;2024-02-28T13:05:18;19.97;;;12.37;;
16973;SDS011;8603;46.944;7.412;2024-02-28T13:08:50;16.63;;;11.40;;
16973;SDS011;8603;46.944;7.412;2024-02-28T13:15:16;16.47;;;11.77;;
16973;SDS011;8603;46.944;7.412;2024-02-28T13:18:39;17.27;;;12.67;;
16973;SDS011;8603;46.944;7.412;2024-02-28T13:21:44;16.53;;;11.30;;
16973;SDS011;8603;46.944;7.412;2024-02-28T13:27:50;17.27;;;10.93;;
16973;SDS011;8603;46.944;7.412;2024-02-28T13:30:30;17.80;;;12.53;;
16973;SDS011;8603;46.944;7.412;2024-02-28T13:33:04;19.07;;;12.27;;
16973;SDS011;8603;46.944;7.412;2024-02-28T13:35:52;17.67;;;12.27;;
16973;SDS011;8603;46.944;7.412;2024-02-28T13:38:21;17.57;;;12.77;;
16973;SDS011;8603;46.944;7.412;2024-02-28T13:40:48;17.33;;;12.07;;
16973;SDS011;8603;46.944;7.412;2024-02-28T13:43:27;19.80;;;12.67;;
16973;SDS011;8603;46.944;7.412;2024-02-28T13:45:52;20.13;;;12.87;;
16973;SDS011;8603;46.944;7.412;2024-02-28T13:48:21;15.93;;;11.80;;
16973;SDS011;8603;46.944;7.412;2024-02-28T13:50:56;18.00;;;11.67;;
16973;SDS011;8603;46.944;7.412;2024-02-28T13:53:24;19.87;;;12.13;;
16973;SDS011;8603;46.944;7.412;2024-02-28T13:55:50;17.53;;;12.03;;
16973;SDS011;8603;46.944;7.412;2024-02-28T14:01:38;17.47;;;11.40;;
16973;SDS011;8603;46.944;7.412;2024-02-28T15:14:32;20.27;;;14.10;;
16973;SDS011;8603;46.944;7.412;2024-02-28T15:20:34;17.43;;;11.90;;
16973;SDS011;8603;46.944;7.412;2024-02-28T15:23:30;20.77;;;13.03;;
16973;SDS011;8603;46.944;7.412;2024-02-28T15:26:31;18.83;;;13.17;;
16973;SDS011;8603;46.944;7.412;2024-02-28T15:40:11;23.43;;;13.00;;
16973;SDS011;8603;46.944;7.412;2024-02-28T15:47:14;19.03;;;13.20;;
16973;SDS011;8603;46.944;7.412;2024-02-28T15:54:21;20.00;;;13.27;;
16973;SDS011;8603;46.944;7.412;2024-02-28T15:57:55;18.43;;;12.10;;
16973;SDS011;8603;46.944;7.412;2024-02-28T16:01:22;17.47;;;12.27;;
16973;SDS011;8603;46.944;7.412;2024-02-28T16:04:24;20.23;;;13.70;;
16973;SDS011;8603;46.944;7.412;2024-02-28T16:07:37;19.30;;;13.97;;
